Time;durP1;ratioP1;P1;durP2;ratioP2;P2;SDS_P1;SDS_P2;PMS_P1;PMS_P2;Temp;Humidity;BMP_temperature;BMP_pressure;BME280_temperature;BME280_humidity;BME280_pressure;Samples;Min_cycle;Max_cycle;Signal;HPM_P1;HPM_P2
2022/06/13 00:00:53;;;;;;;2.47;1.48;;;;;;;;;;2102825;28;20103;-60
2022/06/13 00:02:11;;;;;;;3.58;1.50;;;;;;;;;;2101148;28;20032;-60
2022/06/13 00:03:30;;;;;;;2.88;1.30;;;;;;;;;;2101063;28;20119;-61
2022/06/13 00:04:49;;;;;;;2.20;1.70;;;;;;;;;;2101890;28;20029;-60
2022/06/13 00:06:08;;;;;;;5.75;1.90;;;;;;;;;;2102278;28;20127;-61
2022/06/13 00:07:27;;;;;;;2.42;1.55;;;;;;;;;;2102200;28;20432;-60
2022/06/13 00:08:46;;;;;;;2.08;1.58;;;;;;;;;;2102201;28;20029;-60
2022/06/13 00:10:06;;;;;;;5.75;1.60;;;;;;;;;;2102156;28;20064;-60
2022/06/13 00:11:25;;;;;;;4.20;1.38;;;;;;;;;;2103051;28;20024;-61
2022/06/13 00:12:44;;;;;;;3.47;1.52;;;;;;;;;;2102309;28;20386;-61
2022/06/13 00:14:03;;;;;;;3.78;2.03;;;;;;;;;;2101847;28;20029;-61
2022/06/13 00:15:22;;;;;;;3.05;1.60;;;;;;;;;;2101443;28;20028;-60
2022/06/13 00:16:41;;;;;;;5.85;1.60;;;;;;;;;;2101635;28;20024;-61
2022/06/13 00:18:00;;;;;;;3.00;1.33;;;;;;;;;;2101528;28;20059;-61
2022/06/13 00:19:19;;;;;;;1.70;1.45;;;;;;;;;;2102326;28;20196;-61
2022/06/13 00:20:38;;;;;;;6.15;1.50;;;;;;;;;;2102293;28;20032;-61
2022/06/13 00:21:58;;;;;;;3.25;1.35;;;;;;;;;;2102001;28;20028;-61
2022/06/13 00:23:17;;;;;;;5.75;1.67;;;;;;;;;;2100967;28;20386;-61
2022/06/13 00:24:36;;;;;;;5.10;1.75;;;;;;;;;;2102798;28;20024;-61
2022/06/13 00:25:55;;;;;;;3.38;1.52;;;;;;;;;;2101942;28;20103;-61
2022/06/13 00:27:15;;;;;;;3.47;1.60;;;;;;;;;;2102233;28;20016;-61
2022/06/13 00:28:34;;;;;;;3.13;1.45;;;;;;;;;;2101319;28;20025;-59
2022/06/13 00:29:53;;;;;;;2.88;1.50;;;;;;;;;;2101844;28;20054;-60
2022/06/13 00:31:12;;;;;;;5.38;1.90;;;;;;;;;;2101346;28;20390;-59
2022/06/13 00:32:30;;;;;;;3.03;1.42;;;;;;;;;;2101780;28;20033;-59
2022/06/13 00:33:50;;;;;;;5.82;1.95;;;;;;;;;;2101632;28;20036;-60
2022/06/13 00:35:08;;;;;;;4.90;1.65;;;;;;;;;;2103483;28;20110;-59
2022/06/13 00:36:27;;;;;;;3.55;1.30;;;;;;;;;;2100254;28;20070;-60
2022/06/13 00:37:46;;;;;;;4.22;1.45;;;;;;;;;;2101656;28;20029;-59
2022/06/13 00:39:05;;;;;;;7.28;2.00;;;;;;;;;;2101657;28;20032;-60
2022/06/13 00:40:24;;;;;;;4.55;1.73;;;;;;;;;;2102455;28;20024;-60
2022/06/13 00:41:43;;;;;;;3.40;1.30;;;;;;;;;;2102361;28;20033;-60
2022/06/13 00:43:03;;;;;;;4.43;1.92;;;;;;;;;;2102626;28;20107;-58
2022/06/13 00:44:24;;;;;;;5.63;1.55;;;;;;;;;;2102256;28;20032;-59
2022/06/13 00:45:43;;;;;;;2.38;1.30;;;;;;;;;;2102236;28;20581;-60
2022/06/13 00:47:02;;;;;;;6.30;2.28;;;;;;;;;;2100780;28;20103;-59
2022/06/13 00:48:24;;;;;;;6.57;1.73;;;;;;;;;;2101167;28;20060;-59
2022/06/13 00:49:44;;;;;;;5.95;2.10;;;;;;;;;;2101905;28;20072;-60
2022/06/13 00:51:03;;;;;;;4.50;1.88;;;;;;;;;;2101471;28;20024;-61
2022/06/13 00:52:25;;;;;;;5.20;1.92;;;;;;;;;;2101759;28;20032;-60
2022/06/13 00:53:45;;;;;;;4.63;1.70;;;;;;;;;;2100948;28;20032;-59
2022/06/13 00:55:05;;;;;;;4.03;1.70;;;;;;;;;;2100561;28;20056;-60
2022/06/13 00:56:25;;;;;;;3.38;1.55;;;;;;;;;;2101858;28;20036;-59
2022/06/13 00:57:44;;;;;;;3.75;1.65;;;;;;;;;;2101572;28;20028;-60
2022/06/13 00:59:04;;;;;;;3.78;1.70;;;;;;;;;;2101257;28;20023;-59
2022/06/13 01:00:23;;;;;;;3.10;1.52;;;;;;;;;;2101645;28;20028;-59
2022/06/13 01:01:42;;;;;;;6.85;1.95;;;;;;;;;;2101824;28;20020;-60
2022/06/13 01:03:01;;;;;;;5.50;1.83;;;;;;;;;;2101326;28;20040;-60
2022/06/13 01:04:20;;;;;;;4.35;2.10;;;;;;;;;;2100601;28;20480;-60
2022/06/13 01:05:42;;;;;;;4.38;1.50;;;;;;;;;;2101852;28;20047;-60
2022/06/13 01:07:01;;;;;;;4.05;1.52;;;;;;;;;;2101459;28;20517;-60
2022/06/13 01:08:21;;;;;;;5.05;2.30;;;;;;;;;;2101370;28;20394;-60
2022/06/13 01:11:20;;;;;;;6.10;1.73;;;;;;;;;;2102177;28;20039;-60
2022/06/13 01:12:39;;;;;;;4.78;1.60;;;;;;;;;;2100668;28;20025;-60
2022/06/13 01:14:16;;;;;;;4.72;1.95;;;;;;;;;;2100236;28;20037;-60
2022/06/13 01:15:48;;;;;;;5.60;2.28;;;;;;;;;;2101895;28;20036;-61
2022/06/13 01:17:14;;;;;;;2.78;1.77;;;;;;;;;;2101851;28;20021;-59
2022/06/13 01:18:33;;;;;;;4.70;1.77;;;;;;;;;;2103073;28;20060;-60
2022/06/13 01:20:11;;;;;;;5.10;1.60;;;;;;;;;;2101272;28;20032;-60
2022/06/13 01:21:30;;;;;;;4.10;2.08;;;;;;;;;;2102289;28;20028;-59
2022/06/13 01:23:15;;;;;;;6.22;1.88;;;;;;;;;;2101140;28;20044;-60
2022/06/13 01:24:53;;;;;;;6.53;1.85;;;;;;;;;;2101013;28;20094;-59
2022/06/13 01:26:26;;;;;;;3.00;1.90;;;;;;;;;;2101529;28;20436;-60
2022/06/13 01:27:51;;;;;;;4.68;1.90;;;;;;;;;;2101846;28;20432;-59
2022/06/13 01:29:29;;;;;;;4.88;2.25;;;;;;;;;;2099129;28;20037;-61
2022/06/13 01:30:57;;;;;;;5.53;2.10;;;;;;;;;;2098355;28;20041;-60
2022/06/13 01:32:23;;;;;;;3.28;1.90;;;;;;;;;;2101905;28;20432;-61
2022/06/13 01:34:01;;;;;;;3.50;1.73;;;;;;;;;;2101945;28;20044;-60
2022/06/13 01:35:39;;;;;;;3.95;1.80;;;;;;;;;;2101827;28;20028;-59
2022/06/13 01:37:17;;;;;;;4.18;1.83;;;;;;;;;;2100821;28;20029;-60
2022/06/13 01:38:39;;;;;;;6.22;2.15;;;;;;;;;;2100983;28;20063;-60
2022/06/13 01:40:13;;;;;;;6.50;1.70;;;;;;;;;;2097452;28;20056;-59
2022/06/13 01:41:35;;;;;;;5.78;2.15;;;;;;;;;;2104609;28;20040;-61
2022/06/13 01:42:54;;;;;;;3.83;1.80;;;;;;;;;;2102331;28;20499;-60
2022/06/13 01:44:14;;;;;;;7.32;1.98;;;;;;;;;;2101023;28;20046;-60
2022/06/13 01:45:36;;;;;;;4.18;1.90;;;;;;;;;;2101646;28;20029;-60
2022/06/13 01:47:02;;;;;;;4.72;1.95;;;;;;;;;;2100969;28;20028;-60
2022/06/13 01:48:20;;;;;;;6.55;2.22;;;;;;;;;;2099745;28;20032;-61
2022/06/13 01:49:46;;;;;;;5.90;1.98;;;;;;;;;;2099784;28;20032;-60
2022/06/13 01:51:18;;;;;;;4.35;1.98;;;;;;;;;;2101774;28;20390;-60
2022/06/13 01:52:40;;;;;;;3.65;1.80;;;;;;;;;;2101597;28;20478;-60
2022/06/13 01:54:02;;;;;;;4.95;2.13;;;;;;;;;;2102001;28;20028;-61
2022/06/13 01:55:40;;;;;;;7.05;1.90;;;;;;;;;;2100925;28;20068;-60
2022/06/13 01:57:08;;;;;;;5.43;1.95;;;;;;;;;;2101140;28;20029;-59
2022/06/13 01:58:35;;;;;;;8.65;2.42;;;;;;;;;;2100838;28;20099;-60
2022/06/13 02:00:03;;;;;;;5.43;1.92;;;;;;;;;;2099764;28;20029;-60
2022/06/13 02:01:21;;;;;;;4.57;2.42;;;;;;;;;;2100875;28;20036;-60
2022/06/13 02:02:44;;;;;;;12.48;2.88;;;;;;;;;;2101341;28;20390;-61
2022/06/13 02:04:03;;;;;;;5.63;2.03;;;;;;;;;;2101110;28;20950;-60
2022/06/13 02:05:22;;;;;;;5.05;2.00;;;;;;;;;;2099765;28;20039;-59
2022/06/13 02:06:44;;;;;;;5.32;2.08;;;;;;;;;;2101377;28;20024;-60
2022/06/13 02:08:23;;;;;;;4.43;1.85;;;;;;;;;;2101907;28;20099;-59
2022/06/13 02:09:46;;;;;;;5.45;2.22;;;;;;;;;;2101024;28;20024;-61
2022/06/13 02:11:05;;;;;;;;;;;;;;;;;;2102844;28;20391;-60
2022/06/13 02:12:25;;;;;;;5.85;2.30;;;;;;;;;;2103662;28;20425;-60
2022/06/13 02:13:48;;;;;;;4.75;2.10;;;;;;;;;;2101524;28;20040;-60
2022/06/13 02:15:11;;;;;;;7.85;2.35;;;;;;;;;;2099960;28;20064;-59
2022/06/13 02:16:34;;;;;;;6.97;2.33;;;;;;;;;;2105166;28;20036;-60
2022/06/13 02:17:56;;;;;;;3.28;2.10;;;;;;;;;;2101631;28;20024;-60
2022/06/13 02:19:19;;;;;;;9.95;2.22;;;;;;;;;;2102048;28;20025;-60
2022/06/13 02:20:39;;;;;;;3.13;2.03;;;;;;;;;;2100440;28;20036;-60
2022/06/13 02:22:00;;;;;;;8.10;2.70;;;;;;;;;;2100709;28;20040;-58
2022/06/13 02:23:22;;;;;;;8.35;2.70;;;;;;;;;;2100272;28;20032;-60
2022/06/13 02:24:44;;;;;;;5.53;2.25;;;;;;;;;;2100958;28;20039;-59
2022/06/13 02:26:05;;;;;;;4.43;1.90;;;;;;;;;;2101300;28;20036;-60
2022/06/13 02:27:26;;;;;;;6.78;2.22;;;;;;;;;;2100890;28;20020;-62
2022/06/13 02:28:52;;;;;;;9.50;2.38;;;;;;;;;;2101216;28;20026;-60
2022/06/13 02:30:16;;;;;;;3.15;1.75;;;;;;;;;;2101376;28;20020;-60
2022/06/13 02:31:37;;;;;;;8.25;1.98;;;;;;;;;;2100116;28;20024;-59
2022/06/13 02:33:00;;;;;;;11.27;2.45;;;;;;;;;;2101444;28;20028;-60
2022/06/13 02:34:25;;;;;;;7.03;2.60;;;;;;;;;;2101421;28;20110;-60
2022/06/13 02:35:56;;;;;;;5.22;2.30;;;;;;;;;;2101420;28;20036;-60
2022/06/13 02:37:14;;;;;;;5.82;2.10;;;;;;;;;;2100684;28;20099;-60
2022/06/13 02:38:52;;;;;;;7.53;2.30;;;;;;;;;;2100932;28;20037;-59
2022/06/13 02:40:15;;;;;;;8.25;2.30;;;;;;;;;;2100419;28;20415;-60
2022/06/13 02:41:37;;;;;;;7.05;2.05;;;;;;;;;;2101400;28;20032;-60
2022/06/13 02:43:18;;;;;;;4.25;2.03;;;;;;;;;;2100877;28;20482;-60
2022/06/13 02:44:39;;;;;;;6.40;2.30;;;;;;;;;;2100816;28;20020;-61
2022/06/13 02:45:58;;;;;;;9.18;2.95;;;;;;;;;;2100728;28;20410;-60
2022/06/13 02:47:29;;;;;;;7.78;2.03;;;;;;;;;;2100379;28;20041;-60
2022/06/13 02:48:50;;;;;;;3.80;2.03;;;;;;;;;;2100890;28;20466;-59
2022/06/13 02:50:17;;;;;;;4.00;1.83;;;;;;;;;;2101109;28;20119;-60
2022/06/13 02:51:48;;;;;;;4.15;2.03;;;;;;;;;;2100631;28;20024;-60
2022/06/13 02:53:23;;;;;;;4.88;1.95;;;;;;;;;;2100993;28;20029;-59
2022/06/13 02:54:47;;;;;;;4.45;2.17;;;;;;;;;;2100997;28;20433;-60
2022/06/13 02:56:09;;;;;;;5.32;2.33;;;;;;;;;;2100952;28;20036;-59
2022/06/13 02:57:33;;;;;;;2.58;1.70;;;;;;;;;;2100562;28;20028;-60
2022/06/13 02:59:19;;;;;;;11.85;2.75;;;;;;;;;;2101266;28;20032;-60
2022/06/13 03:00:48;;;;;;;11.70;3.15;;;;;;;;;;2102269;28;20032;-60
2022/06/13 03:02:08;;;;;;;4.10;2.17;;;;;;;;;;2102491;28;20103;-60
2022/06/13 03:03:27;;;;;;;7.28;2.17;;;;;;;;;;2100231;28;20103;-60
2022/06/13 03:04:59;;;;;;;8.70;2.47;;;;;;;;;;2102682;28;20482;-60
2022/06/13 03:06:18;;;;;;;25.65;3.78;;;;;;;;;;2101864;28;20043;-60
2022/06/13 03:07:46;;;;;;;9.30;2.78;;;;;;;;;;2103070;28;20032;-59
2022/06/13 03:09:11;;;;;;;6.60;2.20;;;;;;;;;;2102303;28;20077;-60
2022/06/13 03:10:41;;;;;;;6.40;2.72;;;;;;;;;;2102852;28;20024;-60
2022/06/13 03:12:06;;;;;;;10.68;2.38;;;;;;;;;;2102727;28;20028;-58
2022/06/13 03:13:30;;;;;;;4.63;1.83;;;;;;;;;;2102229;28;20025;-59
2022/06/13 03:14:56;;;;;;;6.53;2.45;;;;;;;;;;2102837;28;20060;-59
2022/06/13 03:16:15;;;;;;;6.65;2.38;;;;;;;;;;2103363;28;20495;-59
2022/06/13 03:17:37;;;;;;;10.60;2.38;;;;;;;;;;2101134;28;20035;-60
2022/06/13 03:19:00;;;;;;;4.22;2.20;;;;;;;;;;2098441;28;20032;-59
2022/06/13 03:20:25;;;;;;;10.45;2.45;;;;;;;;;;2102085;28;20031;-59
2022/06/13 03:21:46;;;;;;;7.32;1.92;;;;;;;;;;2102029;28;20044;-59
2022/06/13 03:23:10;;;;;;;5.57;2.05;;;;;;;;;;2102243;28;20036;-60
2022/06/13 03:24:35;;;;;;;8.07;2.50;;;;;;;;;;2102305;28;20024;-58
2022/06/13 03:26:02;;;;;;;7.55;2.40;;;;;;;;;;2102736;28;20032;-60
2022/06/13 03:27:25;;;;;;;5.85;2.40;;;;;;;;;;2101672;28;20036;-59
2022/06/13 03:28:44;;;;;;;;;;;;;;;;;;2102627;28;20048;-59
2022/06/13 03:30:06;;;;;;;7.38;2.90;;;;;;;;;;2102993;28;19912;-59
2022/06/13 03:31:34;;;;;;;5.32;2.08;;;;;;;;;;2101232;28;20063;-60
2022/06/13 03:34:34;;;;;;;7.43;2.30;;;;;;;;;;2102638;28;20478;-59
2022/06/13 03:35:55;;;;;;;4.72;2.13;;;;;;;;;;2102293;28;20028;-60
2022/06/13 03:37:16;;;;;;;10.70;2.88;;;;;;;;;;2100819;28;20028;-59
2022/06/13 03:38:41;;;;;;;6.90;2.40;;;;;;;;;;2102640;28;20016;-59
2022/06/13 03:40:09;;;;;;;7.95;2.63;;;;;;;;;;2103231;28;20028;-59
2022/06/13 03:41:32;;;;;;;6.40;2.72;;;;;;;;;;2101874;28;20052;-60
2022/06/13 03:42:53;;;;;;;8.18;2.60;;;;;;;;;;2101190;28;20044;-59
2022/06/13 03:44:14;;;;;;;11.95;3.15;;;;;;;;;;2101391;28;20485;-59
2022/06/13 03:45:40;;;;;;;5.60;1.95;;;;;;;;;;2102992;28;20060;-59
2022/06/13 03:47:01;;;;;;;11.32;2.65;;;;;;;;;;2101188;28;20050;-59
2022/06/13 03:48:25;;;;;;;7.88;2.20;;;;;;;;;;2102610;28;20099;-60
2022/06/13 03:49:49;;;;;;;6.82;2.45;;;;;;;;;;2102045;28;20024;-59
2022/06/13 03:51:12;;;;;;;5.55;2.30;;;;;;;;;;2102716;28;20020;-60
2022/06/13 03:52:34;;;;;;;4.97;2.20;;;;;;;;;;2102326;28;20455;-59
2022/06/13 03:53:58;;;;;;;7.43;2.40;;;;;;;;;;2103024;28;20486;-60
2022/06/13 03:55:23;;;;;;;9.05;2.35;;;;;;;;;;2103175;28;20406;-59
2022/06/13 03:56:54;;;;;;;8.32;2.53;;;;;;;;;;2100751;28;20099;-59
2022/06/13 03:58:15;;;;;;;6.07;2.00;;;;;;;;;;2101727;28;20028;-59
2022/06/13 03:59:39;;;;;;;4.25;2.28;;;;;;;;;;2101306;28;20481;-58
2022/06/13 04:01:15;;;;;;;7.85;2.53;;;;;;;;;;2102360;28;20404;-59
2022/06/13 04:02:35;;;;;;;10.55;2.63;;;;;;;;;;2102614;28;20032;-62
2022/06/13 04:03:55;;;;;;;7.13;2.38;;;;;;;;;;2101316;28;20466;-60
2022/06/13 04:05:28;;;;;;;8.68;2.65;;;;;;;;;;2102154;28;20103;-60
2022/06/13 04:06:47;;;;;;;8.20;2.30;;;;;;;;;;2100721;28;20417;-59
2022/06/13 04:08:08;;;;;;;7.75;2.83;;;;;;;;;;2101626;28;20024;-59
2022/06/13 04:09:50;;;;;;;8.45;2.30;;;;;;;;;;2102026;28;20024;-59
2022/06/13 04:11:12;;;;;;;12.60;3.05;;;;;;;;;;2101646;28;20025;-59
2022/06/13 04:12:37;;;;;;;5.88;2.58;;;;;;;;;;2102148;28;20028;-62
2022/06/13 04:13:56;;;;;;;7.50;2.28;;;;;;;;;;2102161;28;20111;-59
2022/06/13 04:15:29;;;;;;;9.40;2.30;;;;;;;;;;2102696;28;20035;-61
2022/06/13 04:16:57;;;;;;;6.87;2.30;;;;;;;;;;2100592;28;20028;-59
2022/06/13 04:18:28;;;;;;;6.53;2.53;;;;;;;;;;2101221;28;20234;-60
2022/06/13 04:19:54;;;;;;;9.80;3.03;;;;;;;;;;2102493;28;20036;-61
2022/06/13 04:21:27;;;;;;;10.48;2.63;;;;;;;;;;2102127;28;20024;-60
2022/06/13 04:22:53;;;;;;;12.10;2.85;;;;;;;;;;2101407;28;20048;-60
2022/06/13 04:24:26;;;;;;;11.30;2.88;;;;;;;;;;2102621;28;20123;-60
2022/06/13 04:25:48;;;;;;;9.25;2.88;;;;;;;;;;2101501;28;20036;-61
2022/06/13 04:27:27;;;;;;;6.75;2.53;;;;;;;;;;2101475;28;20025;-60
2022/06/13 04:28:59;;;;;;;7.10;2.85;;;;;;;;;;2102294;28;20024;-60
2022/06/13 04:30:19;;;;;;;6.57;2.47;;;;;;;;;;2101545;28;20024;-60
2022/06/13 04:31:39;;;;;;;7.75;2.42;;;;;;;;;;2102339;28;20078;-60
2022/06/13 04:33:11;;;;;;;7.53;2.72;;;;;;;;;;2101501;28;20494;-60
2022/06/13 04:34:32;;;;;;;6.80;2.80;;;;;;;;;;2102311;28;20028;-60
2022/06/13 04:35:52;;;;;;;10.73;2.55;;;;;;;;;;2102275;28;20037;-60
2022/06/13 04:37:11;;;;;;;6.25;2.63;;;;;;;;;;2101132;28;20029;-60
2022/06/13 04:38:30;;;;;;;9.88;2.30;;;;;;;;;;2102371;28;20443;-61
2022/06/13 04:39:51;;;;;;;9.60;2.97;;;;;;;;;;2101951;28;20067;-60
2022/06/13 04:41:12;;;;;;;5.95;2.42;;;;;;;;;;2101599;28;20044;-60
2022/06/13 04:42:33;;;;;;;9.13;3.08;;;;;;;;;;2100269;28;20059;-60
2022/06/13 04:43:54;;;;;;;10.93;2.47;;;;;;;;;;2101794;28;20413;-60
2022/06/13 04:45:16;;;;;;;6.47;2.03;;;;;;;;;;2102233;28;20115;-60
2022/06/13 04:46:36;;;;;;;7.32;2.35;;;;;;;;;;2102424;28;20016;-60
2022/06/13 04:47:56;;;;;;;6.00;2.28;;;;;;;;;;2101508;28;20024;-59
2022/06/13 04:49:34;;;;;;;8.82;2.60;;;;;;;;;;2101639;28;20024;-59
2022/06/13 04:50:56;;;;;;;9.32;2.95;;;;;;;;;;2102452;28;20497;-60
2022/06/13 04:52:16;;;;;;;5.95;3.05;;;;;;;;;;2101783;28;20386;-59
2022/06/13 04:53:44;;;;;;;9.20;2.78;;;;;;;;;;2101235;28;20033;-59
2022/06/13 04:55:09;;;;;;;7.95;2.63;;;;;;;;;;2100328;28;20111;-60
2022/06/13 04:56:29;;;;;;;10.48;2.60;;;;;;;;;;2101489;28;20024;-60
2022/06/13 04:57:48;;;;;;;8.00;2.70;;;;;;;;;;2100988;28;20032;-60
2022/06/13 04:59:11;;;;;;;10.65;2.92;;;;;;;;;;2100906;28;20028;-60
2022/06/13 05:00:31;;;;;;;9.48;2.47;;;;;;;;;;2102008;28;20028;-59
2022/06/13 05:01:50;;;;;;;8.25;2.10;;;;;;;;;;2101184;28;20040;-60
2022/06/13 05:03:18;;;;;;;4.65;2.65;;;;;;;;;;2101162;28;20386;-60
2022/06/13 05:04:37;;;;;;;10.13;2.28;;;;;;;;;;2100958;28;20033;-60
2022/06/13 05:06:00;;;;;;;11.63;2.80;;;;;;;;;;2101821;28;20395;-60
2022/06/13 05:07:20;;;;;;;8.43;2.65;;;;;;;;;;2102904;28;20028;-60
2022/06/13 05:08:41;;;;;;;9.27;2.55;;;;;;;;;;2100682;28;20028;-60
2022/06/13 05:10:01;;;;;;;5.93;2.60;;;;;;;;;;2099301;28;20020;-59
2022/06/13 05:11:28;;;;;;;8.02;2.80;;;;;;;;;;2101348;28;20029;-61
2022/06/13 05:12:47;;;;;;;11.70;2.80;;;;;;;;;;2101774;28;20425;-60
2022/06/13 05:14:09;;;;;;;7.45;2.22;;;;;;;;;;2102048;28;20074;-60
2022/06/13 05:15:30;;;;;;;10.32;2.40;;;;;;;;;;2101379;28;20248;-61
2022/06/13 05:16:57;;;;;;;7.55;2.28;;;;;;;;;;2105083;28;20024;-60
2022/06/13 05:18:55;;;;;;;7.78;2.53;;;;;;;;;;2102740;28;20032;-60
2022/06/13 05:20:34;;;;;;;8.52;2.00;;;;;;;;;;2085583;28;20033;-60
2022/06/13 05:21:53;;;;;;;7.30;2.63;;;;;;;;;;2085080;28;20419;-60
2022/06/13 05:23:27;;;;;;;6.82;2.40;;;;;;;;;;2083575;28;20049;-61
2022/06/13 05:25:04;;;;;;;6.97;2.63;;;;;;;;;;2084783;28;20032;-60
2022/06/13 05:26:28;;;;;;;6.93;2.50;;;;;;;;;;2101408;28;20397;-59
2022/06/13 05:27:47;;;;;;;7.63;2.45;;;;;;;;;;2101986;28;20032;-59
2022/06/13 05:29:08;;;;;;;8.45;2.95;;;;;;;;;;2101379;28;20036;-59
2022/06/13 05:30:27;;;;;;;9.73;2.65;;;;;;;;;;2100970;28;20108;-59
2022/06/13 05:31:46;;;;;;;7.43;2.78;;;;;;;;;;2101340;28;20474;-60
2022/06/13 05:33:05;;;;;;;8.25;2.50;;;;;;;;;;2101176;28;20134;-60
2022/06/13 05:34:28;;;;;;;7.28;2.03;;;;;;;;;;2100454;28;20032;-60
2022/06/13 05:35:47;;;;;;;6.88;2.42;;;;;;;;;;2100062;28;20478;-59
2022/06/13 05:37:06;;;;;;;13.70;2.40;;;;;;;;;;2102801;28;20334;-59
2022/06/13 05:38:38;;;;;;;9.50;3.22;;;;;;;;;;2100928;28;20052;-59
2022/06/13 05:39:57;;;;;;;9.07;2.55;;;;;;;;;;2101839;28;20036;-60
2022/06/13 05:41:16;;;;;;;8.82;2.45;;;;;;;;;;2100776;28;20024;-59
2022/06/13 05:42:35;;;;;;;6.55;2.25;;;;;;;;;;2100938;28;20032;-59
2022/06/13 05:43:54;;;;;;;9.60;2.67;;;;;;;;;;2101199;28;20036;-60
2022/06/13 05:45:14;;;;;;;5.28;2.22;;;;;;;;;;2101476;28;20498;-59
2022/06/13 05:46:34;;;;;;;11.68;3.00;;;;;;;;;;2101389;28;20024;-60
2022/06/13 05:47:53;;;;;;;10.95;2.63;;;;;;;;;;2099463;28;20024;-60
2022/06/13 05:49:13;;;;;;;8.18;2.63;;;;;;;;;;2101105;28;20029;-60
2022/06/13 05:50:33;;;;;;;5.18;2.30;;;;;;;;;;2101830;28;20047;-60
2022/06/13 05:51:52;;;;;;;8.55;2.42;;;;;;;;;;2102002;28;20032;-60
2022/06/13 05:53:19;;;;;;;6.38;2.55;;;;;;;;;;2101285;28;20028;-58
2022/06/13 05:54:38;;;;;;;9.23;2.80;;;;;;;;;;2101341;28;20040;-59
2022/06/13 05:56:00;;;;;;;9.55;2.75;;;;;;;;;;2101234;28;20016;-60
2022/06/13 05:57:19;;;;;;;8.45;2.72;;;;;;;;;;2101347;28;20032;-60
2022/06/13 05:58:38;;;;;;;8.57;2.53;;;;;;;;;;2100700;28;20386;-59
2022/06/13 05:59:57;;;;;;;6.53;2.35;;;;;;;;;;2101673;28;20036;-59
2022/06/13 06:01:16;;;;;;;7.20;2.75;;;;;;;;;;2101050;28;20402;-60
2022/06/13 06:02:35;;;;;;;6.32;2.15;;;;;;;;;;2101440;28;20032;-59
2022/06/13 06:03:54;;;;;;;9.23;2.47;;;;;;;;;;2099958;28;20514;-61
2022/06/13 06:05:13;;;;;;;7.32;2.25;;;;;;;;;;2100218;28;20032;-62
2022/06/13 06:06:33;;;;;;;6.55;2.00;;;;;;;;;;2101529;28;20029;-62
2022/06/13 06:07:52;;;;;;;7.25;2.08;;;;;;;;;;2101389;28;20029;-61
2022/06/13 06:09:12;;;;;;;9.63;2.58;;;;;;;;;;2101842;28;20024;-61
2022/06/13 06:10:32;;;;;;;5.72;2.20;;;;;;;;;;2101129;28;20020;-61
2022/06/13 06:11:50;;;;;;;5.00;1.90;;;;;;;;;;2099588;28;20028;-61
2022/06/13 06:13:11;;;;;;;6.05;2.22;;;;;;;;;;2101157;28;20056;-60
2022/06/13 06:14:29;;;;;;;5.82;2.22;;;;;;;;;;2100248;28;20104;-61
2022/06/13 06:15:49;;;;;;;10.75;2.35;;;;;;;;;;2102360;28;20502;-60
2022/06/13 06:17:09;;;;;;;6.43;2.33;;;;;;;;;;2102428;28;20028;-60
2022/06/13 06:18:29;;;;;;;4.70;2.50;;;;;;;;;;2100213;28;20028;-60
2022/06/13 06:19:48;;;;;;;7.57;2.38;;;;;;;;;;2101663;28;20126;-60
2022/06/13 06:21:07;;;;;;;5.18;1.92;;;;;;;;;;2101940;28;20024;-61
2022/06/13 06:22:26;;;;;;;6.88;1.90;;;;;;;;;;2100486;28;20060;-61
2022/06/13 06:23:45;;;;;;;5.82;2.30;;;;;;;;;;2101513;28;20029;-61
2022/06/13 06:25:04;;;;;;;5.90;2.72;;;;;;;;;;2101940;28;20129;-61
2022/06/13 06:26:24;;;;;;;4.43;2.28;;;;;;;;;;2101358;28;20031;-60
2022/06/13 06:27:43;;;;;;;5.70;2.10;;;;;;;;;;2100081;28;20024;-61
2022/06/13 06:29:02;;;;;;;5.78;2.20;;;;;;;;;;2099876;28;20017;-61
2022/06/13 06:30:21;;;;;;;7.38;2.10;;;;;;;;;;2100676;28;20035;-61
2022/06/13 06:31:40;;;;;;;6.22;1.95;;;;;;;;;;2101864;28;20024;-61
2022/06/13 06:33:00;;;;;;;5.82;2.17;;;;;;;;;;2101033;28;20021;-60
2022/06/13 06:34:19;;;;;;;7.05;2.15;;;;;;;;;;2099917;28;20088;-61
2022/06/13 06:35:38;;;;;;;10.57;2.58;;;;;;;;;;2101463;28;20024;-61
2022/06/13 06:36:57;;;;;;;6.45;1.98;;;;;;;;;;2099482;28;20017;-60
2022/06/13 06:38:16;;;;;;;7.90;2.08;;;;;;;;;;2101848;28;20063;-60
2022/06/13 06:39:35;;;;;;;5.72;2.20;;;;;;;;;;2100535;28;20024;-60
2022/06/13 06:40:55;;;;;;;6.90;2.55;;;;;;;;;;2101335;28;20024;-60
2022/06/13 06:42:14;;;;;;;5.95;1.92;;;;;;;;;;2100772;28;20032;-60
2022/06/13 06:43:33;;;;;;;8.35;2.50;;;;;;;;;;2100942;28;20032;-61
2022/06/13 06:44:51;;;;;;;4.40;2.10;;;;;;;;;;2100691;28;20036;-60
2022/06/13 06:46:11;;;;;;;5.07;2.28;;;;;;;;;;2101141;28;20032;-61
2022/06/13 06:47:29;;;;;;;5.47;2.72;;;;;;;;;;2100224;28;20028;-60
2022/06/13 06:48:48;;;;;;;7.55;2.35;;;;;;;;;;2101325;28;20032;-60
2022/06/13 06:50:10;;;;;;;11.02;2.28;;;;;;;;;;2101304;28;20503;-60
2022/06/13 06:51:29;;;;;;;8.25;2.22;;;;;;;;;;2101766;28;20032;-60
2022/06/13 06:52:48;;;;;;;5.55;2.45;;;;;;;;;;2101202;28;20025;-61
2022/06/13 07:00:39;;;;;;;7.78;2.20;;;;;;;;;;2101906;28;20032;-61
2022/06/13 07:01:59;;;;;;;8.35;2.58;;;;;;;;;;2100548;28;20032;-61
2022/06/13 07:03:18;;;;;;;6.90;2.83;;;;;;;;;;2100862;28;20024;-61
2022/06/13 07:04:37;;;;;;;6.18;2.08;;;;;;;;;;2100742;28;20029;-61
2022/06/13 07:05:56;;;;;;;6.90;2.00;;;;;;;;;;2101446;28;20036;-61
2022/06/13 07:07:15;;;;;;;9.52;2.40;;;;;;;;;;2100712;28;20036;-62
2022/06/13 07:08:34;;;;;;;4.78;2.45;;;;;;;;;;2101438;28;20024;-61
2022/06/13 07:09:53;;;;;;;5.18;2.30;;;;;;;;;;2100432;28;20147;-61
2022/06/13 07:12:54;;;;;;;9.93;2.85;;;;;;;;;;2101094;28;20499;-61
2022/06/13 07:14:13;;;;;;;10.40;2.72;;;;;;;;;;2101359;28;20036;-61
2022/06/13 07:15:32;;;;;;;6.35;2.38;;;;;;;;;;2099897;28;20502;-61
2022/06/13 07:16:52;;;;;;;5.78;2.08;;;;;;;;;;2101149;28;20032;-61
2022/06/13 07:18:11;;;;;;;6.22;2.08;;;;;;;;;;2100942;28;20040;-61
2022/06/13 07:19:30;;;;;;;8.23;2.70;;;;;;;;;;2101776;28;20032;-60
2022/06/13 07:20:49;;;;;;;8.15;2.75;;;;;;;;;;2101227;28;20436;-61
2022/06/13 07:22:08;;;;;;;9.55;2.67;;;;;;;;;;2100929;28;20032;-60
2022/06/13 07:23:26;;;;;;;6.53;2.42;;;;;;;;;;2101205;28;20040;-61
2022/06/13 07:24:46;;;;;;;6.40;2.13;;;;;;;;;;2101352;28;20020;-61
2022/06/13 07:26:05;;;;;;;6.88;2.28;;;;;;;;;;2100730;28;20028;-61
2022/06/13 07:27:24;;;;;;;6.90;2.38;;;;;;;;;;2098904;28;20028;-61
2022/06/13 07:28:42;;;;;;;7.97;2.30;;;;;;;;;;2101046;28;20024;-60
2022/06/13 07:30:02;;;;;;;5.75;1.92;;;;;;;;;;2099852;28;20029;-61
2022/06/13 07:31:23;;;;;;;5.80;2.00;;;;;;;;;;2101548;28;20036;-61
2022/06/13 07:32:43;;;;;;;5.97;2.03;;;;;;;;;;2101546;28;20478;-60
2022/06/13 07:34:02;;;;;;;5.88;1.90;;;;;;;;;;2100314;28;20394;-60
2022/06/13 07:35:22;;;;;;;4.97;2.10;;;;;;;;;;2099899;28;20032;-61
2022/06/13 07:36:41;;;;;;;5.53;2.10;;;;;;;;;;2101013;28;20051;-61
2022/06/13 07:38:18;;;;;;;2.92;1.85;;;;;;;;;;2100946;28;20377;-61
2022/06/13 07:39:37;;;;;;;3.42;1.80;;;;;;;;;;2100503;28;20036;-61
2022/06/13 07:40:59;;;;;;;5.45;1.88;;;;;;;;;;2100020;28;20032;-60
2022/06/13 07:42:17;;;;;;;4.13;1.65;;;;;;;;;;2100580;28;20024;-61
2022/06/13 07:43:37;;;;;;;7.78;2.25;;;;;;;;;;2100303;28;20136;-60
2022/06/13 07:44:55;;;;;;;3.00;1.70;;;;;;;;;;2100817;28;20028;-61
2022/06/13 07:46:14;;;;;;;6.15;2.53;;;;;;;;;;2101171;28;20032;-61
2022/06/13 07:47:33;;;;;;;2.97;1.70;;;;;;;;;;2102086;28;20119;-61
2022/06/13 07:48:52;;;;;;;5.38;1.77;;;;;;;;;;2102064;28;20028;-61
2022/06/13 07:50:16;;;;;;;5.10;2.10;;;;;;;;;;2103497;28;20025;-61
2022/06/13 07:51:34;;;;;;;7.28;2.13;;;;;;;;;;2102385;28;20040;-61
2022/06/13 07:52:54;;;;;;;5.20;1.70;;;;;;;;;;2103243;28;20024;-61
2022/06/13 07:54:13;;;;;;;8.35;2.40;;;;;;;;;;2102322;28;20036;-61
2022/06/13 07:55:32;;;;;;;7.90;2.30;;;;;;;;;;2101394;28;20024;-60
2022/06/13 07:56:51;;;;;;;6.53;2.22;;;;;;;;;;2102153;28;20092;-60
2022/06/13 07:58:19;;;;;;;5.15;1.95;;;;;;;;;;2103059;28;20060;-61
2022/06/13 07:59:39;;;;;;;5.07;2.00;;;;;;;;;;2102980;28;20028;-62
2022/06/13 08:00:58;;;;;;;3.88;1.75;;;;;;;;;;2102032;28;20558;-61
2022/06/13 08:02:18;;;;;;;5.05;1.52;;;;;;;;;;2103315;28;20045;-61
2022/06/13 08:03:37;;;;;;;7.47;2.60;;;;;;;;;;2102043;28;20568;-61
2022/06/13 08:04:56;;;;;;;6.70;2.33;;;;;;;;;;2102448;28;20032;-61
2022/06/13 08:06:15;;;;;;;6.78;2.22;;;;;;;;;;2101592;28;20033;-61
2022/06/13 08:07:34;;;;;;;6.82;2.20;;;;;;;;;;2102840;28;20056;-61
2022/06/13 08:08:53;;;;;;;4.18;2.10;;;;;;;;;;2102523;28;20098;-61
2022/06/13 08:10:12;;;;;;;7.55;2.38;;;;;;;;;;2102270;28;20020;-62
2022/06/13 08:11:33;;;;;;;7.40;1.77;;;;;;;;;;2101785;28;20029;-60
2022/06/13 08:12:52;;;;;;;4.18;1.58;;;;;;;;;;2102405;28;20446;-61
2022/06/13 08:14:11;;;;;;;7.90;1.77;;;;;;;;;;2103461;28;20036;-61
2022/06/13 08:15:30;;;;;;;5.30;2.08;;;;;;;;;;2102806;28;20024;-61
2022/06/13 08:16:49;;;;;;;12.52;2.63;;;;;;;;;;2102093;28;20491;-61
2022/06/13 08:18:09;;;;;;;7.82;2.53;;;;;;;;;;2102939;28;20530;-61
2022/06/13 08:19:28;;;;;;;9.75;2.28;;;;;;;;;;2102693;28;20051;-61
2022/06/13 08:20:48;;;;;;;8.10;2.47;;;;;;;;;;2102062;28;20058;-61
2022/06/13 08:22:07;;;;;;;7.57;2.08;;;;;;;;;;2101291;28;20474;-61
2022/06/13 08:23:26;;;;;;;5.20;1.98;;;;;;;;;;2102302;28;20044;-61
2022/06/13 08:24:45;;;;;;;6.53;1.70;;;;;;;;;;2101674;28;20486;-61
2022/06/13 08:26:04;;;;;;;2.95;1.90;;;;;;;;;;2101606;28;20546;-61